sensor_id;sensor_type;location;lat;lon;timestamp;pressure;altitude;pressure_sealevel;temperature;humidity
45789;BME280;31492;54.856;26.318;2023-05-09T00:01:35;1039.1;;;5.2;51.7
45789;BME280;31492;54.856;26.318;2023-05-09T00:06:38;1039;;;5;52.4
45789;BME280;31492;54.856;26.318;2023-05-09T00:11:28;1039;;;4.9;52.7
45789;BME280;31492;54.856;26.318;2023-05-09T00:16:33;1039;;;4.8;52.6
45789;BME280;31492;54.856;26.318;2023-05-09T00:21:52;1039;;;4.8;52.3
45789;BME280;31492;54.856;26.318;2023-05-09T00:26:22;1039;;;4.8;53
45789;BME280;31492;54.856;26.318;2023-05-09T00:31:24;1039.1;;;4.6;53.9
45789;BME280;31492;54.856;26.318;2023-05-09T00:36:34;1039.1;;;4.5;53.2
45789;BME280;31492;54.856;26.318;2023-05-09T00:41:22;1039.1;;;4.5;53.5
45789;BME280;31492;54.856;26.318;2023-05-09T00:46:16;1039.1;;;4.5;53.5
45789;BME280;31492;54.856;26.318;2023-05-09T00:51:16;1039.1;;;4.5;53.1
45789;BME280;31492;54.856;26.318;2023-05-09T00:56:40;1039.2;;;4.5;53.2
45789;BME280;31492;54.856;26.318;2023-05-09T01:01:24;1039.2;;;4.4;53.3
45789;BME280;31492;54.856;26.318;2023-05-09T01:06:31;1039.2;;;4.4;53.5
45789;BME280;31492;54.856;26.318;2023-05-09T01:11:35;1039.1;;;4.3;53.6
45789;BME280;31492;54.856;26.318;2023-05-09T01:16:18;1039.2;;;4.2;54
45789;BME280;31492;54.856;26.318;2023-05-09T01:21:41;1039.2;;;4.2;54.3
45789;BME280;31492;54.856;26.318;2023-05-09T01:26:24;1039.2;;;4;53.9
45789;BME280;31492;54.856;26.318;2023-05-09T01:31:16;1039.2;;;3.8;54.2
45789;BME280;31492;54.856;26.318;2023-05-09T01:36:37;1039.3;;;3.8;54.5
45789;BME280;31492;54.856;26.318;2023-05-09T01:41:37;1039.3;;;3.8;54.9
45789;BME280;31492;54.856;26.318;2023-05-09T01:46:28;1039.3;;;3.8;54.7
45789;BME280;31492;54.856;26.318;2023-05-09T01:51:23;1039.3;;;3.8;54.6
45789;BME280;31492;54.856;26.318;2023-05-09T01:56:16;1039.3;;;3.8;54.8
45789;BME280;31492;54.856;26.318;2023-05-09T02:01:41;1039.3;;;3.7;55.2
45789;BME280;31492;54.856;26.318;2023-05-09T02:06:34;1039.2;;;3.6;55.2
45789;BME280;31492;54.856;26.318;2023-05-09T02:11:30;1039.2;;;3.5;55.7
45789;BME280;31492;54.856;26.318;2023-05-09T02:16:29;1039.2;;;3.5;55.6
45789;BME280;31492;54.856;26.318;2023-05-09T02:21:16;1039.2;;;3.5;55.5
45789;BME280;31492;54.856;26.318;2023-05-09T02:26:37;1039.2;;;3.5;55.8
45789;BME280;31492;54.856;26.318;2023-05-09T02:31:29;1039.2;;;3.5;55.8
45789;BME280;31492;54.856;26.318;2023-05-09T02:36:22;1039.2;;;3.4;55.8
45789;BME280;31492;54.856;26.318;2023-05-09T02:41:29;1039.2;;;3.4;56.1
45789;BME280;31492;54.856;26.318;2023-05-09T02:46:17;1039.2;;;3.2;56.6
45789;BME280;31492;54.856;26.318;2023-05-09T02:51:17;1039.2;;;3.2;56.2
45789;BME280;31492;54.856;26.318;2023-05-09T02:56:41;1039.2;;;3.3;56.3
45789;BME280;31492;54.856;26.318;2023-05-09T03:01:17;1039.2;;;3.3;56.5
45789;BME280;31492;54.856;26.318;2023-05-09T03:06:17;1039.2;;;3.2;56.8
45789;BME280;31492;54.856;26.318;2023-05-09T03:11:37;1039.2;;;3.2;56.5
45789;BME280;31492;54.856;26.318;2023-05-09T03:16:41;1039.2;;;3.3;56.6
45789;BME280;31492;54.856;26.318;2023-05-09T03:21:39;1039.2;;;3.3;56.5
45789;BME280;31492;54.856;26.318;2023-05-09T03:26:27;1039.2;;;3.4;56.8
45789;BME280;31492;54.856;26.318;2023-05-09T03:31:37;1039.2;;;3.5;56.7
45789;BME280;31492;54.856;26.318;2023-05-09T03:36:25;1039.2;;;3.6;56.7
45789;BME280;31492;54.856;26.318;2023-05-09T03:41:29;1039.3;;;3.6;56.9
45789;BME280;31492;54.856;26.318;2023-05-09T03:46:17;1039.3;;;3.7;57
45789;BME280;31492;54.856;26.318;2023-05-09T03:51:17;1039.3;;;3.7;56.8
45789;BME280;31492;54.856;26.318;2023-05-09T03:56:37;1039.4;;;3.8;56.7
45789;BME280;31492;54.856;26.318;2023-05-09T04:01:17;1039.4;;;3.9;56.6
45789;BME280;31492;54.856;26.318;2023-05-09T04:06:17;1039.4;;;4.1;56.7
45789;BME280;31492;54.856;26.318;2023-05-09T04:11:17;1039.4;;;4.3;56.9
45789;BME280;31492;54.856;26.318;2023-05-09T04:16:29;1039.4;;;4.3;56.3
45789;BME280;31492;54.856;26.318;2023-05-09T04:21:29;1039.4;;;4.5;56.2
45789;BME280;31492;54.856;26.318;2023-05-09T04:26:41;1039.4;;;4.6;57.2
45789;BME280;31492;54.856;26.318;2023-05-09T04:31:17;1039.4;;;4.6;56.9
45789;BME280;31492;54.856;26.318;2023-05-09T04:36:17;1039.4;;;4.8;56.6
45789;BME280;31492;54.856;26.318;2023-05-09T04:41:47;1039.5;;;4.9;58.2
45789;BME280;31492;54.856;26.318;2023-05-09T04:46:25;1039.5;;;5;59.1
45789;BME280;31492;54.856;26.318;2023-05-09T04:51:41;1039.5;;;5.2;59.4
45789;BME280;31492;54.856;26.318;2023-05-09T04:56:17;1039.4;;;5.4;59.1
45789;BME280;31492;54.856;26.318;2023-05-09T05:01:37;1039.5;;;5.7;59.5
45789;BME280;31492;54.856;26.318;2023-05-09T05:06:17;1039.5;;;6;59.8
45789;BME280;31492;54.856;26.318;2023-05-09T05:11:17;1039.4;;;6.3;58.7
45789;BME280;31492;54.856;26.318;2023-05-09T05:16:31;1039.4;;;6.5;58.1
45789;BME280;31492;54.856;26.318;2023-05-09T05:21:37;1039.4;;;6.8;57.5
45789;BME280;31492;54.856;26.318;2023-05-09T05:26:23;1039.4;;;7.1;57.3
45789;BME280;31492;54.856;26.318;2023-05-09T05:31:37;1039.4;;;7.4;56.2
45789;BME280;31492;54.856;26.318;2023-05-09T05:36:31;1039.4;;;7.7;55.8
45789;BME280;31492;54.856;26.318;2023-05-09T05:41:29;1039.4;;;8.1;53.5
45789;BME280;31492;54.856;26.318;2023-05-09T05:46:25;1039.3;;;8.5;53
45789;BME280;31492;54.856;26.318;2023-05-09T05:51:17;1039.3;;;8.8;50.7
45789;BME280;31492;54.856;26.318;2023-05-09T05:56:35;1039.2;;;9.2;48.4
45789;BME280;31492;54.856;26.318;2023-05-09T06:01:29;1039.2;;;9.8;46.4
45789;BME280;31492;54.856;26.318;2023-05-09T06:06:17;1039.2;;;10.4;45.4
45789;BME280;31492;54.856;26.318;2023-05-09T06:11:29;1039.1;;;10.8;44.2
45789;BME280;31492;54.856;26.318;2023-05-09T06:16:17;1039.1;;;11.3;43.1
45789;BME280;31492;54.856;26.318;2023-05-09T06:21:29;1039.1;;;11.7;42.2
45789;BME280;31492;54.856;26.318;2023-05-09T06:26:27;1039.1;;;12.2;41.1
45789;BME280;31492;54.856;26.318;2023-05-09T06:31:25;1039.1;;;12.6;41
45789;BME280;31492;54.856;26.318;2023-05-09T06:36:17;1039;;;13.2;40.2
45789;BME280;31492;54.856;26.318;2023-05-09T06:41:17;1039;;;13.6;39.2
45789;BME280;31492;54.856;26.318;2023-05-09T06:46:37;1039;;;14.3;38.1
45789;BME280;31492;54.856;26.318;2023-05-09T06:51:17;1039;;;15;35.4
45789;BME280;31492;54.856;26.318;2023-05-09T06:56:27;1039;;;15.7;35
45789;BME280;31492;54.856;26.318;2023-05-09T07:01:41;1039;;;16.4;34.1
45789;BME280;31492;54.856;26.318;2023-05-09T07:06:17;1038.9;;;17.3;33.6
45789;BME280;31492;54.856;26.318;2023-05-09T07:11:23;1038.8;;;18.2;33.9
45789;BME280;31492;54.856;26.318;2023-05-09T07:16:29;1038.8;;;19.1;30.7
45789;BME280;31492;54.856;26.318;2023-05-09T07:21:23;1038.7;;;19.8;30.2
45789;BME280;31492;54.856;26.318;2023-05-09T07:26:33;1038.7;;;20.7;29.7
45789;BME280;31492;54.856;26.318;2023-05-09T07:31:39;1038.6;;;21.2;25.9
45789;BME280;31492;54.856;26.318;2023-05-09T07:36:35;1038.5;;;21.5;25.8
45789;BME280;31492;54.856;26.318;2023-05-09T07:41:29;1038.5;;;22;22.8
45789;BME280;31492;54.856;26.318;2023-05-09T07:46:17;1038.4;;;21.8;22.4
45789;BME280;31492;54.856;26.318;2023-05-09T07:51:17;1038.3;;;22.1;23.4
45789;BME280;31492;54.856;26.318;2023-05-09T07:56:41;1038.2;;;23.1;22.7
45789;BME280;31492;54.856;26.318;2023-05-09T08:01:17;1038.1;;;23.7;21.3
45789;BME280;31492;54.856;26.318;2023-05-09T08:06:17;1038.1;;;24;20.2
45789;BME280;31492;54.856;26.318;2023-05-09T08:11:31;1038;;;23.8;19.8
45789;BME280;31492;54.856;26.318;2023-05-09T08:16:17;1038;;;24.4;20.6
45789;BME280;31492;54.856;26.318;2023-05-09T08:21:17;1038;;;24.9;19.6
45789;BME280;31492;54.856;26.318;2023-05-09T08:26:17;1037.9;;;25.4;19.7
45789;BME280;31492;54.856;26.318;2023-05-09T08:31:23;1037.9;;;25.9;18.5
45789;BME280;31492;54.856;26.318;2023-05-09T08:36:47;1037.8;;;26.1;18.3
45789;BME280;31492;54.856;26.318;2023-05-09T08:41:54;1037.7;;;25.9;17.5
45789;BME280;31492;54.856;26.318;2023-05-09T08:46:29;1037.7;;;25.7;18.3
45789;BME280;31492;54.856;26.318;2023-05-09T08:51:39;1037.7;;;26;18.7
45789;BME280;31492;54.856;26.318;2023-05-09T08:56:17;1037.6;;;25.7;17.1
45789;BME280;31492;54.856;26.318;2023-05-09T09:01:33;1037.6;;;25.3;17.5
45789;BME280;31492;54.856;26.318;2023-05-09T09:06:29;1037.5;;;25.2;17.5
45789;BME280;31492;54.856;26.318;2023-05-09T09:11:35;1037.4;;;25.6;17.2
45789;BME280;31492;54.856;26.318;2023-05-09T09:16:18;1037.4;;;26;17.7
45789;BME280;31492;54.856;26.318;2023-05-09T09:21:39;1037.4;;;26.5;18
45789;BME280;31492;54.856;26.318;2023-05-09T09:26:17;1037.4;;;26.7;16.8
45789;BME280;31492;54.856;26.318;2023-05-09T09:31:18;1037.4;;;26.3;15.8
45789;BME280;31492;54.856;26.318;2023-05-09T09:36:25;1037.3;;;25.9;16.2
45789;BME280;31492;54.856;26.318;2023-05-09T09:41:17;1037.3;;;25.7;15.7
45789;BME280;31492;54.856;26.318;2023-05-09T09:46:17;1037.2;;;25.1;15.6
45789;BME280;31492;54.856;26.318;2023-05-09T09:51:35;1037.2;;;25.2;16.1
45789;BME280;31492;54.856;26.318;2023-05-09T09:56:40;1037.1;;;25.5;16.3
45789;BME280;31492;54.856;26.318;2023-05-09T10:01:27;1037.1;;;25.8;16.6
45789;BME280;31492;54.856;26.318;2023-05-09T10:06:17;1037;;;26.5;16.4
45789;BME280;31492;54.856;26.318;2023-05-09T10:11:17;1037;;;27;16.2
45789;BME280;31492;54.856;26.318;2023-05-09T10:16:27;1036.9;;;27;15.7
45789;BME280;31492;54.856;26.318;2023-05-09T10:21:17;1036.9;;;27.1;15.4
45789;BME280;31492;54.856;26.318;2023-05-09T10:26:18;1036.8;;;26.7;15.2
45789;BME280;31492;54.856;26.318;2023-05-09T10:31:18;1036.7;;;26.6;15.5
45789;BME280;31492;54.856;26.318;2023-05-09T10:36:39;1036.7;;;26.9;15.9
45789;BME280;31492;54.856;26.318;2023-05-09T10:41:17;1036.6;;;27.1;15.3
45789;BME280;31492;54.856;26.318;2023-05-09T10:46:35;1036.6;;;26.9;14.9
45789;BME280;31492;54.856;26.318;2023-05-09T10:51:29;1036.5;;;27;15.2
45789;BME280;31492;54.856;26.318;2023-05-09T10:56:24;1036.4;;;27.2;15
45789;BME280;31492;54.856;26.318;2023-05-09T11:01:39;1036.4;;;27.1;14.7
45789;BME280;31492;54.856;26.318;2023-05-09T11:06:45;1036.3;;;27;14.7
45789;BME280;31492;54.856;26.318;2023-05-09T11:11:53;1036.3;;;27.1;14.2
45789;BME280;31492;54.856;26.318;2023-05-09T11:16:29;1036.2;;;26.7;14
45789;BME280;31492;54.856;26.318;2023-05-09T11:21:17;1036.2;;;26.6;14.4
45789;BME280;31492;54.856;26.318;2023-05-09T11:26:17;1036.1;;;26.8;14.3
45789;BME280;31492;54.856;26.318;2023-05-09T11:31:17;1036.1;;;27;14
45789;BME280;31492;54.856;26.318;2023-05-09T11:36:29;1036;;;27.1;13.8
45789;BME280;31492;54.856;26.318;2023-05-09T11:41:17;1035.9;;;27;14.1
45789;BME280;31492;54.856;26.318;2023-05-09T11:46:29;1035.8;;;26.8;14.1
45789;BME280;31492;54.856;26.318;2023-05-09T11:51:17;1035.7;;;26.9;14.2
45789;BME280;31492;54.856;26.318;2023-05-09T11:56:17;1035.7;;;27.2;14
45789;BME280;31492;54.856;26.318;2023-05-09T12:01:17;1035.6;;;27.4;14.2
45789;BME280;31492;54.856;26.318;2023-05-09T12:06:33;1035.5;;;27.5;13.7
45789;BME280;31492;54.856;26.318;2023-05-09T12:11:28;1035.5;;;27.3;13.8
45789;BME280;31492;54.856;26.318;2023-05-09T12:16:17;1035.4;;;27.4;13.8
45789;BME280;31492;54.856;26.318;2023-05-09T12:21:17;1035.3;;;27.2;14
45789;BME280;31492;54.856;26.318;2023-05-09T12:26:27;1035.3;;;27.3;13.7
45789;BME280;31492;54.856;26.318;2023-05-09T12:31:29;1035.2;;;27.3;13.8
45789;BME280;31492;54.856;26.318;2023-05-09T12:36:23;1035.1;;;27.4;13.6
45789;BME280;31492;54.856;26.318;2023-05-09T12:41:17;1035.2;;;27;13.3
45789;BME280;31492;54.856;26.318;2023-05-09T12:46:39;1035.1;;;26.5;13.4
45789;BME280;31492;54.856;26.318;2023-05-09T12:51:46;1035;;;26.2;13.1
45789;BME280;31492;54.856;26.318;2023-05-09T12:56:41;1034.9;;;25.7;14.1
45789;BME280;31492;54.856;26.318;2023-05-09T13:01:29;1034.8;;;25.9;14
45789;BME280;31492;54.856;26.318;2023-05-09T13:06:46;1034.7;;;26.2;13.7
45789;BME280;31492;54.856;26.318;2023-05-09T13:11:17;1034.7;;;26.2;13.6
45789;BME280;31492;54.856;26.318;2023-05-09T13:16:17;1034.6;;;25.9;13.9
45789;BME280;31492;54.856;26.318;2023-05-09T13:21:17;1034.5;;;25.8;14.2
45789;BME280;31492;54.856;26.318;2023-05-09T13:26:17;1034.5;;;25.9;14.2
45789;BME280;31492;54.856;26.318;2023-05-09T13:31:35;1034.4;;;25.9;13.8
45789;BME280;31492;54.856;26.318;2023-05-09T13:36:17;1034.4;;;25.9;14
45789;BME280;31492;54.856;26.318;2023-05-09T13:41:39;1034.3;;;25.9;14.3
45789;BME280;31492;54.856;26.318;2023-05-09T13:46:17;1034.2;;;25.7;14
45789;BME280;31492;54.856;26.318;2023-05-09T13:51:39;1034.2;;;25.4;14.6
45789;BME280;31492;54.856;26.318;2023-05-09T13:56:37;1034.2;;;25;14.2
45789;BME280;31492;54.856;26.318;2023-05-09T14:01:33;1034.1;;;24.4;14.3
45789;BME280;31492;54.856;26.318;2023-05-09T14:06:29;1034;;;23.9;15
45789;BME280;31492;54.856;26.318;2023-05-09T14:11:29;1034;;;23.5;15.2
45789;BME280;31492;54.856;26.318;2023-05-09T14:16:23;1034;;;23.1;15.1
45789;BME280;31492;54.856;26.318;2023-05-09T14:21:39;1033.9;;;22.8;15.4
45789;BME280;31492;54.856;26.318;2023-05-09T14:26:41;1034;;;22.4;15.7
45789;BME280;31492;54.856;26.318;2023-05-09T14:31:17;1034;;;22.2;15.9
45789;BME280;31492;54.856;26.318;2023-05-09T14:36:17;1034;;;21.8;16.1
45789;BME280;31492;54.856;26.318;2023-05-09T14:41:17;1033.9;;;21.6;16.9
45789;BME280;31492;54.856;26.318;2023-05-09T14:46:39;1033.9;;;21.3;17.1
45789;BME280;31492;54.856;26.318;2023-05-09T14:51:49;1033.8;;;21.1;17
45789;BME280;31492;54.856;26.318;2023-05-09T14:56:17;1033.8;;;20.9;16.8
45789;BME280;31492;54.856;26.318;2023-05-09T15:01:39;1033.7;;;20.7;16.7
45789;BME280;31492;54.856;26.318;2023-05-09T15:07:01;1033.6;;;20.4;18.3
45789;BME280;31492;54.856;26.318;2023-05-09T15:11:23;1033.7;;;20.2;18.3
45789;BME280;31492;54.856;26.318;2023-05-09T15:16:17;1033.7;;;20.1;18.3
45789;BME280;31492;54.856;26.318;2023-05-09T15:21:17;1033.6;;;19.9;17.8
45789;BME280;31492;54.856;26.318;2023-05-09T15:26:23;1033.6;;;19.8;17.9
45789;BME280;31492;54.856;26.318;2023-05-09T15:31:34;1033.5;;;19.7;18.5
45789;BME280;31492;54.856;26.318;2023-05-09T15:36:29;1033.4;;;19.5;18.9
45789;BME280;31492;54.856;26.318;2023-05-09T15:41:17;1033.4;;;19.4;19.2
45789;BME280;31492;54.856;26.318;2023-05-09T15:46:17;1033.3;;;19.3;19.7
45789;BME280;31492;54.856;26.318;2023-05-09T15:51:17;1033.3;;;19.2;19.1
45789;BME280;31492;54.856;26.318;2023-05-09T15:56:31;1033.3;;;19.1;19.6
45789;BME280;31492;54.856;26.318;2023-05-09T16:01:17;1033.2;;;18.9;19.8
45789;BME280;31492;54.856;26.318;2023-05-09T16:06:29;1033.2;;;18.8;19.8
45789;BME280;31492;54.856;26.318;2023-05-09T16:11:17;1033.2;;;18.8;20.1
45789;BME280;31492;54.856;26.318;2023-05-09T16:16:29;1033.1;;;18.6;20.3
45789;BME280;31492;54.856;26.318;2023-05-09T16:21:29;1033.1;;;18.5;21
45789;BME280;31492;54.856;26.318;2023-05-09T16:26:33;1033.1;;;18.4;21.3
45789;BME280;31492;54.856;26.318;2023-05-09T16:31:17;1033;;;18.2;21.8
45789;BME280;31492;54.856;26.318;2023-05-09T16:36:17;1033;;;18;22.2
45789;BME280;31492;54.856;26.318;2023-05-09T16:41:17;1033;;;17.9;21.8
45789;BME280;31492;54.856;26.318;2023-05-09T16:46:29;1032.9;;;17.8;22.2
45789;BME280;31492;54.856;26.318;2023-05-09T16:51:35;1032.9;;;17.5;23.4
45789;BME280;31492;54.856;26.318;2023-05-09T16:56:27;1032.9;;;17.2;23.6
45789;BME280;31492;54.856;26.318;2023-05-09T17:01:17;1032.9;;;17.2;23.8
45789;BME280;31492;54.856;26.318;2023-05-09T17:06:23;1032.9;;;17;23.6
45789;BME280;31492;54.856;26.318;2023-05-09T17:11:41;1032.9;;;16.9;25.5
45789;BME280;31492;54.856;26.318;2023-05-09T17:16:35;1032.9;;;16.7;26.9
45789;BME280;31492;54.856;26.318;2023-05-09T17:21:23;1032.9;;;16.5;27.3
45789;BME280;31492;54.856;26.318;2023-05-09T17:26:17;1032.9;;;16.3;27.6
45789;BME280;31492;54.856;26.318;2023-05-09T17:31:41;1032.9;;;16.1;27.7
45789;BME280;31492;54.856;26.318;2023-05-09T17:36:17;1032.9;;;15.9;28.8
45789;BME280;31492;54.856;26.318;2023-05-09T17:41:17;1032.9;;;15.7;28.5
45789;BME280;31492;54.856;26.318;2023-05-09T17:46:17;1033;;;15.4;28.6
45789;BME280;31492;54.856;26.318;2023-05-09T17:51:27;1033;;;15.2;28.9
45789;BME280;31492;54.856;26.318;2023-05-09T17:56:32;1033;;;15;29.8
45789;BME280;31492;54.856;26.318;2023-05-09T18:01:27;1033.1;;;14.9;30.1
45789;BME280;31492;54.856;26.318;2023-05-09T18:06:41;1033.1;;;14.7;30.5
45789;BME280;31492;54.856;26.318;2023-05-09T18:11:43;1033.1;;;14.4;30.5
45789;BME280;31492;54.856;26.318;2023-05-09T18:16:23;1033.1;;;14.2;31.5
45789;BME280;31492;54.856;26.318;2023-05-09T18:22:03;1033.2;;;14;32.3
45789;BME280;31492;54.856;26.318;2023-05-09T18:26:17;1033.2;;;13.7;33.4
45789;BME280;31492;54.856;26.318;2023-05-09T18:31:17;1033.2;;;13.5;33.6
45789;BME280;31492;54.856;26.318;2023-05-09T18:36:17;1033.3;;;13.3;33.3
45789;BME280;31492;54.856;26.318;2023-05-09T18:41:17;1033.2;;;13.1;33.8
45789;BME280;31492;54.856;26.318;2023-05-09T18:46:31;1033.2;;;12.9;33.9
45789;BME280;31492;54.856;26.318;2023-05-09T18:51:17;1033.3;;;12.9;33.7
45789;BME280;31492;54.856;26.318;2023-05-09T18:56:39;1033.3;;;12.8;33.8
45789;BME280;31492;54.856;26.318;2023-05-09T19:01:33;1033.3;;;12.7;34.1
45789;BME280;31492;54.856;26.318;2023-05-09T19:06:17;1033.3;;;12.6;34.3
45789;BME280;31492;54.856;26.318;2023-05-09T19:11:35;1033.3;;;12.4;34.8
45789;BME280;31492;54.856;26.318;2023-05-09T19:16:31;1033.3;;;12.3;35.1
45789;BME280;31492;54.856;26.318;2023-05-09T19:21:17;1033.3;;;12.2;35.4
45789;BME280;31492;54.856;26.318;2023-05-09T19:26:43;1033.3;;;12;35.9
45789;BME280;31492;54.856;26.318;2023-05-09T19:31:27;1033.3;;;11.7;36.1
45789;BME280;31492;54.856;26.318;2023-05-09T19:36:41;1033.3;;;11.5;36.2
45789;BME280;31492;54.856;26.318;2023-05-09T19:41:17;1033.3;;;11.4;36.4
45789;BME280;31492;54.856;26.318;2023-05-09T19:46:39;1033.3;;;11.3;36.9
45789;BME280;31492;54.856;26.318;2023-05-09T19:51:31;1033.3;;;11.1;37.3
45789;BME280;31492;54.856;26.318;2023-05-09T19:56:23;1033.3;;;11.1;38.1
45789;BME280;31492;54.856;26.318;2023-05-09T20:01:41;1033.3;;;11;38.8
45789;BME280;31492;54.856;26.318;2023-05-09T20:06:17;1033.3;;;11;39.3
45789;BME280;31492;54.856;26.318;2023-05-09T20:11:17;1033.3;;;10.9;39.9
45789;BME280;31492;54.856;26.318;2023-05-09T20:16:27;1033.3;;;10.7;40.8
45789;BME280;31492;54.856;26.318;2023-05-09T20:21:29;1033.3;;;10.6;41.4
45789;BME280;31492;54.856;26.318;2023-05-09T20:26:35;1033.2;;;10.4;42.1
45789;BME280;31492;54.856;26.318;2023-05-09T20:31:17;1033.2;;;10.2;42.5
45789;BME280;31492;54.856;26.318;2023-05-09T20:36:29;1033.2;;;10.1;42.9
45789;BME280;31492;54.856;26.318;2023-05-09T20:41:27;1033.3;;;10.1;44.1
45789;BME280;31492;54.856;26.318;2023-05-09T20:46:49;1033.2;;;9.9;44.3
45789;BME280;31492;54.856;26.318;2023-05-09T20:51:17;1033.2;;;9.9;43.4
45789;BME280;31492;54.856;26.318;2023-05-09T20:56:17;1033.2;;;10;43
45789;BME280;31492;54.856;26.318;2023-05-09T21:01:31;1033.2;;;9.9;43
45789;BME280;31492;54.856;26.318;2023-05-09T21:06:23;1033.2;;;9.9;43.1
45789;BME280;31492;54.856;26.318;2023-05-09T21:11:39;1033.3;;;9.9;43.5
45789;BME280;31492;54.856;26.318;2023-05-09T21:16:17;1033.3;;;9.6;44.2
45789;BME280;31492;54.856;26.318;2023-05-09T21:21:17;1033.3;;;9.5;44.1
45789;BME280;31492;54.856;26.318;2023-05-09T21:26:25;1033.3;;;9.5;44.1
45789;BME280;31492;54.856;26.318;2023-05-09T21:31:29;1033.3;;;9.4;44.6
45789;BME280;31492;54.856;26.318;2023-05-09T21:36:17;1033.4;;;9.2;45.4
45789;BME280;31492;54.856;26.318;2023-05-09T21:41:17;1033.4;;;9.2;45.8
45789;BME280;31492;54.856;26.318;2023-05-09T21:46:17;1033.4;;;9.2;45.8
45789;BME280;31492;54.856;26.318;2023-05-09T21:52:03;1033.5;;;9.2;45.8
45789;BME280;31492;54.856;26.318;2023-05-09T21:56:25;1033.5;;;9.1;46.5
45789;BME280;31492;54.856;26.318;2023-05-09T22:01:17;1033.6;;;8.9;47.4
45789;BME280;31492;54.856;26.318;2023-05-09T22:06:17;1033.6;;;8.8;47.9
45789;BME280;31492;54.856;26.318;2023-05-09T22:11:51;1033.6;;;8.7;48.5
45789;BME280;31492;54.856;26.318;2023-05-09T22:16:23;1033.5;;;8.5;48.9
45789;BME280;31492;54.856;26.318;2023-05-09T22:21:45;1033.5;;;8.4;49.3
45789;BME280;31492;54.856;26.318;2023-05-09T22:26:17;1033.5;;;8.3;49.5
45789;BME280;31492;54.856;26.318;2023-05-09T22:31:29;1033.5;;;8.2;49.6
45789;BME280;31492;54.856;26.318;2023-05-09T22:36:27;1033.5;;;8.2;49.5
45789;BME280;31492;54.856;26.318;2023-05-09T22:41:31;1033.5;;;8.1;49.7
45789;BME280;31492;54.856;26.318;2023-05-09T22:46:37;1033.5;;;8.1;49.7
45789;BME280;31492;54.856;26.318;2023-05-09T22:51:17;1033.5;;;8;50.1
45789;BME280;31492;54.856;26.318;2023-05-09T22:56:17;1033.4;;;8;50
45789;BME280;31492;54.856;26.318;2023-05-09T23:01:37;1033.5;;;8;50
45789;BME280;31492;54.856;26.318;2023-05-09T23:06:27;1033.4;;;7.9;50.2
45789;BME280;31492;54.856;26.318;2023-05-09T23:11:29;1033.4;;;7.8;50.4
45789;BME280;31492;54.856;26.318;2023-05-09T23:16:17;1033.4;;;7.8;50.3
45789;BME280;31492;54.856;26.318;2023-05-09T23:21:41;1033.4;;;7.8;50.5
45789;BME280;31492;54.856;26.318;2023-05-09T23:26:31;1033.5;;;7.7;50.8
45789;BME280;31492;54.856;26.318;2023-05-09T23:31:29;1033.5;;;7.7;50.9
45789;BME280;31492;54.856;26.318;2023-05-09T23:36:31;1033.5;;;7.7;51.4
45789;BME280;31492;54.856;26.318;2023-05-09T23:41:31;1033.5;;;7.6;51.7
45789;BME280;31492;54.856;26.318;2023-05-09T23:46:17;1033.5;;;7.6;51.3
45789;BME280;31492;54.856;26.318;2023-05-09T23:51:17;1033.5;;;7.6;50.9
45789;BME280;31492;54.856;26.318;2023-05-09T23:56:29;1033.5;;;7.6;50.3
